createdAt,value
2023-04-25T00:00:42.621Z,0.00
2023-04-25T00:01:42.614Z,0.00
2023-04-25T00:02:42.798Z,0.00
2023-04-25T00:03:42.799Z,0.00
2023-04-25T00:04:42.797Z,0.00
2023-04-25T00:05:42.632Z,0.00
2023-04-25T00:06:42.561Z,0.00
2023-04-25T00:07:42.572Z,0.00
2023-04-25T00:08:42.542Z,0.00
2023-04-25T00:09:42.521Z,0.00
2023-04-25T00:10:42.516Z,0.00
2023-04-25T00:11:42.512Z,0.00
2023-04-25T00:12:42.495Z,0.00
2023-04-25T00:13:42.478Z,0.00
2023-04-25T00:14:42.469Z,0.00
2023-04-25T00:15:42.768Z,0.00
2023-04-25T00:16:42.556Z,0.00
2023-04-25T00:17:42.480Z,0.00
2023-04-25T00:18:42.411Z,0.00
2023-04-25T00:19:42.464Z,0.00
2023-04-25T00:20:42.390Z,0.00
2023-04-25T00:21:42.398Z,0.00
2023-04-25T00:22:42.417Z,0.00
2023-04-25T00:23:42.356Z,0.00
2023-04-25T00:24:42.363Z,0.00
2023-04-25T00:25:42.355Z,0.00
2023-04-25T00:26:42.349Z,0.00
2023-04-25T00:27:42.352Z,0.00
2023-04-25T00:28:42.301Z,0.00
2023-04-25T00:29:42.303Z,0.00
2023-04-25T00:30:42.276Z,0.00
2023-04-25T00:31:42.336Z,0.00
2023-04-25T00:32:42.316Z,0.00
2023-04-25T00:33:42.265Z,0.00
2023-04-25T00:34:42.229Z,0.00
2023-04-25T00:35:42.251Z,0.00
2023-04-25T00:36:42.216Z,0.00
2023-04-25T00:37:42.208Z,0.00
2023-04-25T00:38:42.194Z,0.00
2023-04-25T00:39:42.173Z,0.00
2023-04-25T00:40:42.169Z,0.00
2023-04-25T00:41:42.166Z,0.00
2023-04-25T00:42:42.163Z,0.00
2023-04-25T00:43:42.158Z,0.00
2023-04-25T00:44:42.112Z,0.00
2023-04-25T00:45:42.121Z,0.00
2023-04-25T00:46:42.123Z,0.00
2023-04-25T00:47:42.119Z,0.00
2023-04-25T00:48:42.116Z,0.00
2023-04-25T00:49:42.071Z,0.00
2023-04-25T00:50:42.071Z,0.00
2023-04-25T00:51:42.089Z,0.00
2023-04-25T00:52:42.034Z,0.00
2023-04-25T00:53:42.031Z,0.00
2023-04-25T00:54:42.015Z,0.00
2023-04-25T00:55:42.005Z,0.00
2023-04-25T00:56:41.989Z,0.00
2023-04-25T00:57:42.002Z,0.00
2023-04-25T00:58:42.739Z,0.00
2023-04-25T00:59:41.952Z,0.00
2023-04-25T01:00:42.027Z,0.00
2023-04-25T01:01:41.925Z,0.00
2023-04-25T01:02:42.107Z,0.00
2023-04-25T01:03:47.518Z,0.00
2023-04-25T01:04:42.898Z,0.00
2023-04-25T01:05:41.893Z,0.00
2023-04-25T01:06:41.874Z,0.00
2023-04-25T01:07:41.902Z,0.00
2023-04-25T01:08:41.839Z,0.00
2023-04-25T01:09:41.844Z,0.00
2023-04-25T01:10:41.817Z,0.00
2023-04-25T01:11:41.819Z,0.00
2023-04-25T01:12:41.808Z,0.00
2023-04-25T01:13:41.795Z,0.00
2023-04-25T01:14:41.780Z,0.00
2023-04-25T01:15:41.766Z,0.00
2023-04-25T01:16:41.795Z,0.00
2023-04-25T01:17:41.762Z,0.00
2023-04-25T01:18:41.737Z,0.00
2023-04-25T01:19:41.730Z,0.00
2023-04-25T01:20:41.709Z,0.00
2023-04-25T01:21:41.696Z,0.00
2023-04-25T01:22:41.761Z,0.00
2023-04-25T01:23:41.746Z,0.00
2023-04-25T01:24:41.662Z,0.00
2023-04-25T01:25:41.668Z,0.00
2023-04-25T01:26:41.635Z,0.00
2023-04-25T01:27:41.642Z,0.00
2023-04-25T01:28:41.623Z,0.00
2023-04-25T01:29:41.618Z,0.00
2023-04-25T01:30:41.601Z,0.00
2023-04-25T01:31:41.650Z,0.00
2023-04-25T01:32:41.651Z,0.00
2023-04-25T01:33:41.597Z,0.00
2023-04-25T01:34:41.586Z,0.00
2023-04-25T01:35:41.538Z,0.00
2023-04-25T01:36:41.529Z,0.00
2023-04-25T01:37:41.535Z,0.00
2023-04-25T01:38:41.532Z,0.00
2023-04-25T01:39:41.516Z,0.00
2023-04-25T01:40:41.481Z,0.00
2023-04-25T01:41:41.491Z,0.00
2023-04-25T01:42:41.455Z,0.00
2023-04-25T01:43:41.473Z,0.00
2023-04-25T01:44:41.434Z,0.00
2023-04-25T01:45:41.451Z,0.00
2023-04-25T01:46:41.482Z,0.00
2023-04-25T01:47:41.425Z,0.00
2023-04-25T01:48:41.450Z,0.00
2023-04-25T01:49:41.390Z,0.00
2023-04-25T01:50:41.374Z,0.00
2023-04-25T01:51:41.370Z,0.00
2023-04-25T01:52:41.343Z,0.00
2023-04-25T01:53:41.358Z,0.00
2023-04-25T01:54:41.364Z,0.00
2023-04-25T01:55:41.346Z,0.00
2023-04-25T01:56:41.370Z,0.00
2023-04-25T01:57:41.305Z,0.00
2023-04-25T01:58:41.282Z,0.00
2023-04-25T01:59:41.282Z,0.00
2023-04-25T02:00:41.249Z,0.00
2023-04-25T02:01:41.268Z,0.00
2023-04-25T02:02:41.358Z,0.00
2023-04-25T02:03:41.383Z,0.00
2023-04-25T02:04:41.502Z,0.00
2023-04-25T02:05:41.211Z,0.00
2023-04-25T02:06:41.197Z,0.00
2023-04-25T02:07:41.183Z,0.00
2023-04-25T02:08:41.162Z,0.00
2023-04-25T02:09:41.168Z,0.00
2023-04-25T02:10:41.183Z,0.00
2023-04-25T02:11:41.167Z,0.00
2023-04-25T02:12:41.121Z,0.00
2023-04-25T02:13:41.119Z,0.00
2023-04-25T02:14:41.121Z,0.00
2023-04-25T02:15:41.132Z,0.00
2023-04-25T02:16:41.217Z,0.00
2023-04-25T02:17:41.074Z,0.00
2023-04-25T02:18:41.068Z,0.00
2023-04-25T02:19:41.061Z,0.00
2023-04-25T02:20:41.024Z,0.00
2023-04-25T02:21:41.034Z,0.00
2023-04-25T02:22:41.016Z,0.00
2023-04-25T02:23:41.010Z,0.00
2023-04-25T02:24:41.021Z,0.00
2023-04-25T02:25:40.976Z,0.00
2023-04-25T02:26:40.967Z,0.00
2023-04-25T02:27:40.973Z,0.00
2023-04-25T02:28:40.942Z,0.00
2023-04-25T02:29:40.939Z,0.00
2023-04-25T02:30:40.927Z,0.00
2023-04-25T02:31:40.931Z,0.00
2023-04-25T02:32:40.982Z,0.00
2023-04-25T02:33:40.895Z,0.00
2023-04-25T02:34:40.894Z,0.00
2023-04-25T02:35:40.865Z,0.00
2023-04-25T02:36:40.857Z,0.00
2023-04-25T02:37:40.850Z,0.00
2023-04-25T02:38:40.824Z,0.00
2023-04-25T02:39:40.839Z,0.00
2023-04-25T02:40:40.835Z,0.00
2023-04-25T02:41:40.800Z,0.00
2023-04-25T02:42:40.805Z,0.00
2023-04-25T02:43:40.794Z,0.00
2023-04-25T02:44:40.805Z,0.00
2023-04-25T02:45:40.757Z,0.00
2023-04-25T02:46:40.768Z,0.00
2023-04-25T02:47:40.785Z,0.00
2023-04-25T02:48:40.726Z,0.00
2023-04-25T02:49:40.712Z,0.00
2023-04-25T02:50:40.717Z,0.00
2023-04-25T02:51:40.677Z,0.00
2023-04-25T02:52:40.676Z,0.00
2023-04-25T02:53:40.652Z,0.00
2023-04-25T02:54:40.649Z,0.00
2023-04-25T02:55:40.655Z,0.00
2023-04-25T02:56:40.623Z,0.00
2023-04-25T02:57:40.618Z,0.00
2023-04-25T02:58:40.599Z,0.00
2023-04-25T02:59:40.632Z,0.00
2023-04-25T03:00:40.625Z,0.00
2023-04-25T03:01:40.560Z,0.00
2023-04-25T03:02:40.607Z,0.00
2023-04-25T03:03:40.588Z,0.00
2023-04-25T03:04:40.633Z,0.00
2023-04-25T03:05:40.569Z,0.00
2023-04-25T03:06:40.520Z,0.00
2023-04-25T03:07:40.516Z,0.00
2023-04-25T03:08:40.503Z,0.00
2023-04-25T03:09:40.468Z,0.00
2023-04-25T03:10:40.504Z,0.00
2023-04-25T03:11:40.448Z,0.00
2023-04-25T03:12:40.452Z,0.00
2023-04-25T03:13:40.425Z,0.00
2023-04-25T03:14:40.419Z,0.00
2023-04-25T03:15:40.456Z,0.00
2023-04-25T03:16:40.505Z,0.00
2023-04-25T03:17:40.422Z,0.00
2023-04-25T03:18:40.370Z,0.00
2023-04-25T03:19:40.356Z,0.00
2023-04-25T03:20:40.386Z,0.00
2023-04-25T03:21:40.335Z,0.00
2023-04-25T03:22:40.340Z,0.00
2023-04-25T03:23:40.337Z,0.00
2023-04-25T03:24:40.304Z,0.00
2023-04-25T03:25:40.325Z,0.00
2023-04-25T03:26:40.315Z,0.00
2023-04-25T03:27:40.287Z,0.00
2023-04-25T03:28:40.255Z,0.00
2023-04-25T03:29:40.243Z,0.00
2023-04-25T03:30:40.235Z,0.00
2023-04-25T03:31:40.269Z,0.00
2023-04-25T03:32:40.228Z,0.00
2023-04-25T03:33:40.215Z,0.00
2023-04-25T03:34:40.188Z,0.00
2023-04-25T03:35:40.174Z,0.00
2023-04-25T03:36:41.759Z,0.00
2023-04-25T03:37:40.166Z,0.00
2023-04-25T03:38:40.150Z,0.00
2023-04-25T03:39:40.151Z,0.00
2023-04-25T03:40:40.145Z,0.00
2023-04-25T03:41:40.124Z,0.00
2023-04-25T03:42:40.101Z,0.00
2023-04-25T03:43:40.102Z,0.00
2023-04-25T03:44:40.077Z,0.00
2023-04-25T03:45:40.157Z,0.00
2023-04-25T03:46:40.087Z,0.00
2023-04-25T03:47:40.128Z,0.00
2023-04-25T03:48:40.047Z,0.00
2023-04-25T03:49:40.016Z,0.00
2023-04-25T03:50:40.036Z,0.00
2023-04-25T03:51:39.992Z,4.00
2023-04-25T03:52:40.039Z,4.00
2023-04-25T03:53:39.988Z,0.00
2023-04-25T03:54:39.963Z,0.00
2023-04-25T03:55:41.815Z,0.00
2023-04-25T03:56:39.963Z,4.00
2023-04-25T03:57:39.936Z,4.00
2023-04-25T03:58:39.958Z,0.00
2023-04-25T03:59:39.936Z,0.00
2023-04-25T04:00:39.897Z,4.00
2023-04-25T04:01:39.895Z,4.00
2023-04-25T04:02:40.649Z,4.00
2023-04-25T04:03:40.153Z,4.00
2023-04-25T04:04:40.253Z,4.00
2023-04-25T04:05:39.906Z,4.00
2023-04-25T04:06:39.836Z,8.00
2023-04-25T04:07:39.813Z,8.00
2023-04-25T04:08:39.820Z,8.00
2023-04-25T04:09:39.790Z,8.00
2023-04-25T04:10:39.860Z,8.00
2023-04-25T04:11:39.766Z,8.00
2023-04-25T04:12:39.770Z,12.00
2023-04-25T04:13:39.803Z,12.00
2023-04-25T04:14:39.736Z,12.00
2023-04-25T04:15:39.769Z,16.00
2023-04-25T04:16:39.730Z,20.00
2023-04-25T04:17:39.746Z,20.00
2023-04-25T04:18:39.714Z,24.00
2023-04-25T04:19:39.723Z,24.00
2023-04-25T04:20:39.669Z,28.00
2023-04-25T04:21:39.667Z,32.00
2023-04-25T04:22:39.667Z,36.00
2023-04-25T04:23:40.006Z,48.00
2023-04-25T04:24:39.652Z,48.00
2023-04-25T04:25:39.624Z,56.00
2023-04-25T04:26:39.632Z,56.00
2023-04-25T04:27:39.584Z,60.00
2023-04-25T04:28:39.578Z,64.00
2023-04-25T04:29:39.599Z,80.00
2023-04-25T04:30:39.567Z,92.00
2023-04-25T04:31:39.615Z,100.00
2023-04-25T04:32:39.556Z,116.00
2023-04-25T04:33:39.529Z,116.00
2023-04-25T04:34:39.524Z,128.00
2023-04-25T04:35:39.538Z,120.00
2023-04-25T04:36:39.537Z,112.00
2023-04-25T04:37:39.473Z,108.00
2023-04-25T04:38:41.823Z,116.00
2023-04-25T04:39:39.467Z,112.00
2023-04-25T04:40:39.470Z,124.00
2023-04-25T04:41:39.464Z,132.00
2023-04-25T04:42:39.459Z,136.00
2023-04-25T04:43:39.406Z,152.00
2023-04-25T04:44:39.413Z,156.00
2023-04-25T04:45:39.386Z,172.00
2023-04-25T04:46:39.412Z,188.00
2023-04-25T04:47:39.437Z,212.00
2023-04-25T04:48:39.370Z,232.00
2023-04-25T04:49:39.353Z,228.00
2023-04-25T04:50:39.342Z,232.00
2023-04-25T04:51:39.384Z,240.00
2023-04-25T04:52:39.330Z,244.00
2023-04-25T04:53:39.319Z,280.00
2023-04-25T04:54:39.298Z,276.00
2023-04-25T04:55:39.275Z,284.00
2023-04-25T04:56:39.329Z,316.00
2023-04-25T04:57:39.255Z,336.00
2023-04-25T04:58:39.250Z,296.00
2023-04-25T04:59:39.265Z,276.00
2023-04-25T05:00:39.277Z,344.00
2023-04-25T05:01:39.212Z,416.00
2023-04-25T05:02:39.251Z,432.00
2023-04-25T05:03:39.434Z,392.00
2023-04-25T05:04:39.240Z,416.00
2023-04-25T05:05:39.153Z,348.00
2023-04-25T05:06:39.243Z,412.00
2023-04-25T05:07:39.154Z,384.00
2023-04-25T05:08:39.175Z,480.00
2023-04-25T05:09:39.124Z,452.00
2023-04-25T05:10:39.114Z,484.00
2023-04-25T05:11:39.116Z,368.00
2023-04-25T05:12:39.121Z,412.00
2023-04-25T05:13:39.076Z,480.00
2023-04-25T05:14:39.066Z,416.00
2023-04-25T05:15:39.042Z,412.00
2023-04-25T05:16:39.171Z,532.00
2023-04-25T05:17:39.058Z,548.00
2023-04-25T05:18:39.023Z,544.00
2023-04-25T05:19:38.996Z,604.00
2023-04-25T05:20:38.990Z,584.00
2023-04-25T05:21:38.989Z,532.00
2023-04-25T05:22:39.829Z,424.00
2023-04-25T05:23:38.976Z,520.00
2023-04-25T05:24:38.951Z,508.00
2023-04-25T05:25:38.934Z,452.00
2023-04-25T05:26:38.952Z,508.00
2023-04-25T05:27:38.922Z,684.00
2023-04-25T05:28:38.916Z,832.00
2023-04-25T05:29:38.927Z,900.00
2023-04-25T05:30:38.889Z,944.00
2023-04-25T05:31:38.910Z,1096.00
2023-04-25T05:32:38.972Z,1028.00
2023-04-25T05:33:38.862Z,1168.00
2023-04-25T05:34:38.848Z,1232.00
2023-04-25T05:35:38.832Z,1228.00
2023-04-25T05:36:38.822Z,1268.00
2023-04-25T05:37:38.803Z,1380.00
2023-04-25T05:38:38.798Z,1348.00
2023-04-25T05:39:38.822Z,1368.00
2023-04-25T05:40:38.771Z,1436.00
2023-04-25T05:41:38.769Z,1152.00
2023-04-25T05:42:38.764Z,1480.00
2023-04-25T05:43:38.730Z,1456.00
2023-04-25T05:44:38.714Z,1432.00
2023-04-25T05:45:38.713Z,1076.00
2023-04-25T05:46:38.782Z,1148.00
2023-04-25T05:47:38.790Z,1572.00
2023-04-25T05:48:38.667Z,1668.00
2023-04-25T05:49:38.687Z,1232.00
2023-04-25T05:50:38.781Z,1384.00
2023-04-25T05:51:39.653Z,1640.00
2023-04-25T05:52:38.639Z,1736.00
2023-04-25T05:53:38.614Z,1440.00
2023-04-25T05:54:38.624Z,1668.00
2023-04-25T05:55:38.605Z,1684.00
2023-04-25T05:56:38.604Z,1700.00
2023-04-25T05:57:38.571Z,1916.00
2023-04-25T05:58:38.576Z,1868.00
2023-04-25T05:59:38.552Z,1724.00
2023-04-25T06:00:38.549Z,2252.00
2023-04-25T06:01:38.549Z,1996.00
2023-04-25T06:02:38.696Z,1688.00
2023-04-25T06:03:38.878Z,2288.00
2023-04-25T06:04:38.834Z,2604.00
2023-04-25T06:05:38.544Z,2776.00
2023-04-25T06:06:38.462Z,2976.00
2023-04-25T06:07:38.470Z,2872.00
2023-04-25T06:08:38.443Z,2772.00
2023-04-25T06:09:38.433Z,2932.00
2023-04-25T06:10:38.434Z,3120.00
2023-04-25T06:11:38.435Z,3020.00
2023-04-25T06:12:38.414Z,3148.00
2023-04-25T06:13:38.390Z,3744.00
2023-04-25T06:14:38.424Z,3612.00
2023-04-25T06:15:38.396Z,3700.00
2023-04-25T06:16:38.354Z,3536.00
2023-04-25T06:17:38.381Z,3300.00
2023-04-25T06:18:38.336Z,3388.00
2023-04-25T06:19:38.310Z,2584.00
2023-04-25T06:20:38.303Z,3936.00
2023-04-25T06:21:38.288Z,4704.00
2023-04-25T06:22:38.309Z,5260.00
2023-04-25T06:23:38.288Z,4640.00
2023-04-25T06:24:38.252Z,5280.00
2023-04-25T06:25:38.240Z,5200.00
2023-04-25T06:26:38.232Z,4596.00
2023-04-25T06:27:38.258Z,2896.00
2023-04-25T06:28:38.223Z,2704.00
2023-04-25T06:29:38.215Z,2512.00
2023-04-25T06:30:38.201Z,2660.00
2023-04-25T06:31:38.181Z,2612.00
2023-04-25T06:32:38.201Z,2660.00
2023-04-25T06:33:38.148Z,2728.00
2023-04-25T06:34:38.163Z,2828.00
2023-04-25T06:35:38.135Z,3116.00
2023-04-25T06:36:38.118Z,3300.00
2023-04-25T06:37:38.163Z,3252.00
2023-04-25T06:38:38.107Z,3180.00
2023-04-25T06:39:40.576Z,4700.00
2023-04-25T06:40:38.093Z,3544.00
2023-04-25T06:41:38.068Z,5636.00
2023-04-25T06:42:38.107Z,4484.00
2023-04-25T06:43:38.070Z,4532.00
2023-04-25T06:44:38.042Z,4176.00
2023-04-25T06:45:38.041Z,4336.00
2023-04-25T06:46:38.043Z,3056.00
2023-04-25T06:47:38.072Z,2952.00
2023-04-25T06:48:38.010Z,2892.00
2023-04-25T06:49:37.965Z,2624.00
2023-04-25T06:50:37.972Z,2832.00
2023-04-25T06:51:37.968Z,3128.00
2023-04-25T06:52:37.956Z,3588.00
2023-04-25T06:53:37.960Z,4668.00
2023-04-25T06:54:37.919Z,4924.00
2023-04-25T06:55:37.931Z,3844.00
2023-04-25T06:56:37.899Z,4376.00
2023-04-25T06:57:37.896Z,4676.00
2023-04-25T06:58:37.883Z,3568.00
2023-04-25T06:59:37.902Z,5464.00
2023-04-25T07:00:37.858Z,5972.00
2023-04-25T07:01:37.838Z,6464.00
2023-04-25T07:02:38.004Z,6300.00
2023-04-25T07:03:37.925Z,6608.00
2023-04-25T07:04:38.060Z,6672.00
2023-04-25T07:05:37.791Z,4532.00
2023-04-25T07:06:37.795Z,4584.00
2023-04-25T07:07:37.797Z,4592.00
2023-04-25T07:08:37.765Z,4956.00
2023-04-25T07:09:37.756Z,4796.00
2023-04-25T07:10:37.762Z,4336.00
2023-04-25T07:11:37.905Z,4788.00
2023-04-25T07:12:37.763Z,5184.00
2023-04-25T07:13:37.720Z,3988.00
2023-04-25T07:14:37.708Z,2972.00
2023-04-25T07:15:37.716Z,2224.00
2023-04-25T07:16:37.754Z,2384.00
2023-04-25T07:17:37.760Z,2036.00
2023-04-25T07:18:37.661Z,2708.00
2023-04-25T07:19:37.639Z,3336.00
2023-04-25T07:20:37.638Z,2640.00
2023-04-25T07:21:37.651Z,3260.00
2023-04-25T07:22:37.619Z,3284.00
2023-04-25T07:23:37.631Z,4600.00
2023-04-25T07:24:37.596Z,5188.00
2023-04-25T07:25:37.567Z,5392.00
2023-04-25T07:26:37.553Z,5280.00
2023-04-25T07:27:37.595Z,4708.00
2023-04-25T07:28:37.534Z,4128.00
2023-04-25T07:29:37.526Z,4752.00
2023-04-25T07:30:37.506Z,6188.00
2023-04-25T07:31:37.579Z,6928.00
2023-04-25T07:32:37.547Z,5252.00
2023-04-25T07:33:37.494Z,5436.00
2023-04-25T07:34:37.462Z,4764.00
2023-04-25T07:35:37.470Z,5504.00
2023-04-25T07:36:37.435Z,5512.00
2023-04-25T07:37:37.518Z,4708.00
2023-04-25T07:38:37.421Z,5396.00
2023-04-25T07:39:37.437Z,5948.00
2023-04-25T07:40:37.405Z,5080.00
2023-04-25T07:41:37.391Z,4284.00
2023-04-25T07:42:37.580Z,4740.00
2023-04-25T07:43:37.382Z,4960.00
2023-04-25T07:44:37.352Z,5708.00
2023-04-25T07:45:37.389Z,6628.00
2023-04-25T07:46:37.330Z,5780.00
2023-04-25T07:47:37.398Z,6688.00
2023-04-25T07:48:37.308Z,6916.00
2023-04-25T07:49:37.323Z,6692.00
2023-04-25T07:50:37.285Z,6636.00
2023-04-25T07:51:37.271Z,6624.00
2023-04-25T07:52:37.286Z,6624.00
2023-04-25T07:53:37.763Z,6416.00
2023-04-25T07:54:37.240Z,6524.00
2023-04-25T07:55:37.241Z,5972.00
2023-04-25T07:56:49.167Z,6760.00
2023-04-25T07:57:38.233Z,8012.00
2023-04-25T07:58:37.192Z,7584.00
2023-04-25T07:59:37.180Z,6584.00
2023-04-25T08:00:37.177Z,6812.00
2023-04-25T08:01:37.156Z,7108.00
2023-04-25T08:02:37.662Z,7328.00
2023-04-25T08:03:37.516Z,7988.00
2023-04-25T08:04:37.367Z,7852.00
2023-04-25T08:05:37.264Z,7344.00
2023-04-25T08:06:37.227Z,7752.00
2023-04-25T08:07:37.124Z,8500.00
2023-04-25T08:08:37.072Z,7524.00
2023-04-25T08:09:37.086Z,7832.00
2023-04-25T08:10:37.069Z,8360.00
2023-04-25T08:11:37.052Z,8360.00
2023-04-25T08:12:37.041Z,8072.00
2023-04-25T08:13:37.052Z,8084.00
2023-04-25T08:14:37.159Z,7776.00
2023-04-25T08:15:37.059Z,7532.00
2023-04-25T08:16:37.016Z,7384.00
2023-04-25T08:17:36.990Z,7108.00
2023-04-25T08:18:36.984Z,6736.00
2023-04-25T08:19:36.989Z,7044.00
2023-04-25T08:20:36.965Z,6980.00
2023-04-25T08:21:36.946Z,6880.00
2023-04-25T08:22:36.914Z,7084.00
2023-04-25T08:23:36.958Z,6780.00
2023-04-25T08:24:38.813Z,6032.00
2023-04-25T08:25:36.895Z,5960.00
2023-04-25T08:26:36.884Z,6380.00
2023-04-25T08:27:36.864Z,6164.00
2023-04-25T08:28:36.904Z,5012.00
2023-04-25T08:29:36.868Z,6276.00
2023-04-25T08:30:36.822Z,6592.00
2023-04-25T08:31:36.844Z,5908.00
2023-04-25T08:32:36.863Z,5400.00
2023-04-25T08:33:36.833Z,5872.00
2023-04-25T08:34:36.790Z,5916.00
2023-04-25T08:35:36.836Z,7152.00
2023-04-25T08:36:39.623Z,6516.00
2023-04-25T08:37:36.764Z,4660.00
2023-04-25T08:38:36.746Z,5160.00
2023-04-25T08:39:36.726Z,7288.00
2023-04-25T08:40:36.752Z,7936.00
2023-04-25T08:41:36.717Z,7480.00
2023-04-25T08:42:36.688Z,5492.00
2023-04-25T08:43:36.698Z,5488.00
2023-04-25T08:44:36.684Z,5512.00
2023-04-25T08:45:36.662Z,6576.00
2023-04-25T08:46:36.751Z,9112.00
2023-04-25T08:47:36.687Z,5236.00
2023-04-25T08:48:36.638Z,3884.00
2023-04-25T08:49:36.629Z,5096.00
2023-04-25T08:50:36.623Z,9892.00
2023-04-25T08:51:36.623Z,4572.00
2023-04-25T08:52:36.588Z,2084.00
2023-04-25T08:53:36.585Z,1904.00
2023-04-25T08:54:38.436Z,2068.00
2023-04-25T08:55:36.581Z,1712.00
2023-04-25T08:56:36.527Z,1948.00
2023-04-25T08:57:36.546Z,1820.00
2023-04-25T08:58:36.531Z,1904.00
2023-04-25T08:59:39.056Z,1976.00
2023-04-25T09:00:36.505Z,2028.00
2023-04-25T09:01:37.495Z,4260.00
2023-04-25T09:02:36.564Z,5676.00
2023-04-25T09:03:36.542Z,5612.00
2023-04-25T09:04:36.450Z,4936.00
2023-04-25T09:05:36.491Z,4416.00
2023-04-25T09:06:36.462Z,2776.00
2023-04-25T09:07:36.615Z,1964.00
2023-04-25T09:08:36.405Z,1460.00
2023-04-25T09:09:36.419Z,1460.00
2023-04-25T09:10:36.393Z,1668.00
2023-04-25T09:11:36.383Z,2220.00
2023-04-25T09:12:36.376Z,2668.00
2023-04-25T09:13:36.384Z,2680.00
2023-04-25T09:14:36.346Z,2248.00
2023-04-25T09:15:36.329Z,1736.00
2023-04-25T09:16:37.711Z,1596.00
2023-04-25T09:17:36.493Z,1512.00
2023-04-25T09:18:36.316Z,1476.00
2023-04-25T09:20:40.348Z,1848.00
2023-04-25T09:21:37.265Z,1992.00
2023-04-25T09:22:36.248Z,2204.00
2023-04-25T09:23:36.404Z,2484.00
2023-04-25T09:24:36.235Z,2512.00
2023-04-25T09:25:36.247Z,2252.00
2023-04-25T09:26:36.202Z,1924.00
2023-04-25T09:27:36.192Z,1780.00
2023-04-25T09:28:36.160Z,1804.00
2023-04-25T09:29:36.173Z,1948.00
2023-04-25T09:30:36.143Z,1948.00
2023-04-25T09:31:36.245Z,1968.00
2023-04-25T09:32:36.236Z,2148.00
2023-04-25T09:33:36.131Z,2364.00
2023-04-25T09:34:36.113Z,2616.00
2023-04-25T09:35:36.108Z,2988.00
2023-04-25T09:36:36.085Z,2664.00
2023-04-25T09:37:36.080Z,2668.00
2023-04-25T09:38:36.080Z,2796.00
2023-04-25T09:39:36.143Z,3184.00
2023-04-25T09:40:36.040Z,4544.00
2023-04-25T09:41:36.022Z,4712.00
2023-04-25T09:42:36.025Z,4184.00
2023-04-25T09:43:36.024Z,3736.00
2023-04-25T09:44:35.990Z,3256.00
2023-04-25T09:45:35.971Z,3236.00
2023-04-25T09:46:36.051Z,2840.00
2023-04-25T09:47:35.973Z,2668.00
2023-04-25T09:48:35.962Z,2576.00
2023-04-25T09:49:35.952Z,2336.00
2023-04-25T09:50:35.929Z,2176.00
2023-04-25T09:51:35.915Z,1944.00
2023-04-25T09:52:35.911Z,2088.00
2023-04-25T09:53:35.917Z,1892.00
2023-04-25T09:54:35.898Z,1612.00
2023-04-25T09:55:35.969Z,1652.00
2023-04-25T09:56:35.844Z,2076.00
2023-04-25T09:57:35.877Z,2360.00
2023-04-25T09:58:35.822Z,2956.00
2023-04-25T09:59:35.828Z,3464.00
2023-04-25T10:00:35.820Z,4268.00
2023-04-25T10:01:35.831Z,4604.00
2023-04-25T10:02:35.852Z,5696.00
2023-04-25T10:03:36.094Z,5080.00
2023-04-25T10:04:35.805Z,4304.00
2023-04-25T10:05:35.748Z,4004.00
2023-04-25T10:06:35.781Z,3456.00
2023-04-25T10:07:35.739Z,2776.00
2023-04-25T10:08:35.740Z,2368.00
2023-04-25T10:09:35.723Z,2060.00
2023-04-25T10:10:35.687Z,1820.00
2023-04-25T10:11:35.729Z,1708.00
2023-04-25T10:12:35.720Z,1708.00
2023-04-25T10:13:35.677Z,1596.00
2023-04-25T10:14:35.654Z,1352.00
2023-04-25T10:15:37.458Z,1272.00
2023-04-25T10:16:35.621Z,1248.00
2023-04-25T10:17:35.716Z,1268.00
2023-04-25T10:18:35.596Z,1220.00
2023-04-25T10:19:35.604Z,1172.00
2023-04-25T10:20:35.587Z,1072.00
2023-04-25T10:21:35.581Z,1048.00
2023-04-25T10:22:35.578Z,1004.00
2023-04-25T10:23:35.698Z,852.00
2023-04-25T10:24:35.586Z,892.00
2023-04-25T10:25:35.541Z,1080.00
2023-04-25T10:26:35.517Z,1228.00
2023-04-25T10:27:35.530Z,1464.00
2023-04-25T10:28:35.562Z,1684.00
2023-04-25T10:29:35.529Z,1664.00
2023-04-25T10:30:35.541Z,1816.00
2023-04-25T10:31:35.591Z,2024.00
2023-04-25T10:32:35.479Z,2160.00
2023-04-25T10:33:35.490Z,2360.00
2023-04-25T10:34:35.430Z,2488.00
2023-04-25T10:35:35.436Z,2696.00
2023-04-25T10:36:35.402Z,2828.00
2023-04-25T10:37:35.397Z,3016.00
2023-04-25T10:38:35.394Z,3056.00
2023-04-25T10:39:35.387Z,3408.00
2023-04-25T10:40:35.390Z,3884.00
2023-04-25T10:41:35.373Z,4076.00
2023-04-25T10:42:35.334Z,3820.00
2023-04-25T10:43:35.350Z,3836.00
2023-04-25T10:44:35.339Z,3896.00
2023-04-25T10:45:35.312Z,3808.00
2023-04-25T10:46:35.338Z,3164.00
2023-04-25T10:47:35.334Z,5100.00
2023-04-25T10:48:35.266Z,7796.00
2023-04-25T10:49:35.274Z,7512.00
2023-04-25T10:50:35.290Z,5268.00
2023-04-25T10:51:51.593Z,4940.00
2023-04-25T10:52:36.207Z,4128.00
2023-04-25T10:53:35.228Z,4352.00
2023-04-25T10:54:35.206Z,3588.00
2023-04-25T10:55:35.201Z,3148.00
2023-04-25T10:56:35.177Z,2984.00
2023-04-25T10:57:35.179Z,2800.00
2023-04-25T10:58:35.154Z,2176.00
2023-04-25T10:59:35.181Z,1764.00
2023-04-25T11:00:48.019Z,1460.00
2023-04-25T11:01:36.186Z,1292.00
2023-04-25T11:02:35.245Z,1232.00
2023-04-25T11:03:35.355Z,1192.00
2023-04-25T11:04:35.479Z,1180.00
2023-04-25T11:06:36.061Z,1760.00
2023-04-25T11:07:35.069Z,1960.00
2023-04-25T11:08:35.027Z,1988.00
2023-04-25T11:09:35.020Z,1928.00
2023-04-25T11:10:35.055Z,1860.00
2023-04-25T11:11:35.005Z,1824.00
2023-04-25T11:12:34.983Z,1844.00
2023-04-25T11:13:35.004Z,1872.00
2023-04-25T11:14:34.981Z,1808.00
2023-04-25T11:14:37.734Z,1420.00
2023-04-25T11:15:34.994Z,1708.00
2023-04-25T11:16:35.002Z,1748.00
2023-04-25T11:17:35.151Z,1784.00
2023-04-25T11:18:34.932Z,1832.00
2023-04-25T11:19:34.909Z,1788.00
2023-04-25T11:20:34.908Z,1816.00
2023-04-25T11:21:34.908Z,1776.00
2023-04-25T11:22:34.903Z,1768.00
2023-04-25T11:23:34.861Z,1780.00
2023-04-25T11:24:34.868Z,1904.00
2023-04-25T11:25:36.579Z,2076.00
2023-04-25T11:26:35.440Z,2272.00
2023-04-25T11:27:34.843Z,2544.00
2023-04-25T11:28:34.829Z,2708.00
2023-04-25T11:29:34.809Z,2872.00
2023-04-25T11:30:34.807Z,3076.00
2023-04-25T11:31:34.839Z,3256.00
2023-04-25T11:32:34.956Z,3316.00
2023-04-25T11:33:34.758Z,3340.00
2023-04-25T11:34:34.741Z,3372.00
2023-04-25T11:35:34.797Z,3536.00
2023-04-25T11:36:34.749Z,3484.00
2023-04-25T11:37:34.715Z,3572.00
2023-04-25T11:38:34.692Z,4416.00
2023-04-25T11:39:34.707Z,3616.00
2023-04-25T11:40:34.682Z,3624.00
2023-04-25T11:41:34.671Z,3404.00
2023-04-25T11:42:34.671Z,3404.00
2023-04-25T11:43:35.202Z,4260.00
2023-04-25T11:44:34.648Z,4960.00
2023-04-25T11:45:34.656Z,5000.00
2023-04-25T11:46:34.727Z,4756.00
2023-04-25T11:47:34.756Z,4600.00
2023-04-25T11:48:34.592Z,4576.00
2023-04-25T11:49:34.562Z,6180.00
2023-04-25T11:50:34.575Z,4860.00
2023-04-25T11:51:34.574Z,4152.00
2023-04-25T11:52:34.534Z,3912.00
2023-04-25T11:53:34.529Z,3808.00
2023-04-25T11:54:34.512Z,5596.00
2023-04-25T11:55:34.507Z,3292.00
2023-04-25T11:56:34.511Z,2908.00
2023-04-25T11:57:34.489Z,2828.00
2023-04-25T11:58:34.892Z,2876.00
2023-04-25T11:59:34.467Z,2916.00
2023-04-25T12:00:34.502Z,3448.00
2023-04-25T12:01:44.773Z,5356.00
2023-04-25T12:02:35.570Z,2968.00
2023-04-25T12:03:34.688Z,2892.00
2023-04-25T12:04:34.675Z,2384.00
2023-04-25T12:05:34.947Z,2052.00
2023-04-25T12:06:34.424Z,2324.00
2023-04-25T12:07:34.360Z,2456.00
2023-04-25T12:08:34.380Z,4464.00
2023-04-25T12:09:34.355Z,4768.00
2023-04-25T12:10:34.362Z,4808.00
2023-04-25T12:11:34.334Z,5084.00
2023-04-25T12:12:34.304Z,4880.00
2023-04-25T12:13:34.318Z,5044.00
2023-04-25T12:14:34.393Z,5284.00
2023-04-25T12:15:34.280Z,4652.00
2023-04-25T12:16:34.441Z,4684.00
2023-04-25T12:17:34.278Z,3692.00
2023-04-25T12:18:34.253Z,4408.00
2023-04-25T12:19:34.242Z,4368.00
2023-04-25T12:20:34.231Z,5208.00
2023-04-25T12:21:38.752Z,4044.00
2023-04-25T12:22:35.195Z,3984.00
2023-04-25T12:23:34.195Z,5712.00
2023-04-25T12:24:35.305Z,5104.00
2023-04-25T12:25:34.245Z,5244.00
2023-04-25T12:26:34.183Z,4800.00
2023-04-25T12:27:34.131Z,5692.00
2023-04-25T12:28:34.144Z,5740.00
2023-04-25T12:29:41.978Z,4260.00
2023-04-25T12:30:35.102Z,5612.00
2023-04-25T12:31:34.180Z,5432.00
2023-04-25T12:32:34.118Z,5240.00